Time;durP1;ratioP1;P1;durP2;ratioP2;P2;SDS_P1;SDS_P2;PMS_P1;PMS_P2;Temp;Humidity;BMP_temperature;BMP_pressure;BME280_temperature;BME280_humidity;BME280_pressure;Samples;Min_cycle;Max_cycle;Signal;HPM_P1;HPM_P2
2023/04/24 00:00:32;;;;;;;1.60;1.10;;;;;;;10.83;100.00;97393.22;4139886;28;20255;-47
2023/04/24 00:02:33;;;;;;;1.38;1.00;;;;;;;10.83;100.00;97395.94;4141576;28;20209;-48
2023/04/24 00:04:36;;;;;;;2.40;1.42;;;;;;;10.83;100.00;97390.47;4126327;28;20296;-48
2023/04/24 00:06:38;;;;;;;1.73;1.00;;;;;;;10.96;100.00;97395.34;4136323;28;20296;-47
2023/04/24 00:08:40;;;;;;;1.58;1.33;;;;;;;10.99;100.00;97393.97;4151381;28;20225;-47
2023/04/24 00:10:41;;;;;;;2.60;1.00;;;;;;;10.99;100.00;97389.34;4122941;28;20312;-47
2023/04/24 00:12:44;;;;;;;1.17;1.10;;;;;;;10.99;100.00;97391.25;4141751;28;20300;-47
2023/04/24 00:14:45;;;;;;;2.53;1.20;;;;;;;11.00;100.00;97377.28;4152971;28;20256;-47
2023/04/24 00:16:47;;;;;;;1.83;1.08;;;;;;;11.02;100.00;97377.81;4141029;28;20216;-48
2023/04/24 00:18:49;;;;;;;1.25;1.13;;;;;;;11.05;100.00;97374.50;4136168;28;20715;-47
2023/04/24 00:20:51;;;;;;;4.18;1.23;;;;;;;11.10;100.00;97379.97;4142556;28;20635;-46
2023/04/24 00:22:53;;;;;;;1.38;1.00;;;;;;;11.07;100.00;97375.06;4122917;28;20210;-48
2023/04/24 00:24:55;;;;;;;1.13;1.02;;;;;;;11.12;100.00;97368.75;4153550;28;20462;-47
2023/04/24 00:26:57;;;;;;;3.30;1.10;;;;;;;11.11;100.00;97369.84;4134370;28;20247;-47
2023/04/24 00:28:59;;;;;;;0.98;0.85;;;;;;;11.14;100.00;97370.09;4137173;28;20225;-48
2023/04/24 00:31:00;;;;;;;3.83;0.80;;;;;;;11.13;100.00;97371.19;4122856;28;20696;-47
2023/04/24 00:33:03;;;;;;;4.18;0.95;;;;;;;11.11;100.00;97367.91;4139287;28;20290;-47
2023/04/24 00:35:05;;;;;;;1.30;0.90;;;;;;;11.11;100.00;97365.16;4138221;28;20217;-48
2023/04/24 00:37:07;;;;;;;1.33;1.05;;;;;;;11.20;100.00;97362.66;4136309;28;20297;-47
2023/04/24 00:39:09;;;;;;;1.67;1.20;;;;;;;11.16;100.00;97362.41;4141052;28;20256;-48
2023/04/24 00:41:11;;;;;;;1.85;0.95;;;;;;;11.17;100.00;97357.78;4136047;28;20302;-47
2023/04/24 00:43:13;;;;;;;0.80;0.77;;;;;;;11.14;100.00;97364.63;4141019;28;20589;-48
2023/04/24 00:45:15;;;;;;;2.83;1.20;;;;;;;11.18;100.00;97370.34;4125171;28;20309;-48
2023/04/24 00:47:16;;;;;;;1.20;1.00;;;;;;;11.13;100.00;97368.47;4149967;28;20923;-47
2023/04/24 00:49:19;;;;;;;2.25;1.00;;;;;;;11.15;100.00;97362.69;4133832;28;20271;-48
2023/04/24 00:51:20;;;;;;;5.60;0.90;;;;;;;11.13;100.00;97367.63;4135591;28;20813;-47
2023/04/24 00:53:22;;;;;;;0.80;0.80;;;;;;;11.16;100.00;97367.06;4125184;28;20309;-49
2023/04/24 00:55:24;;;;;;;3.35;1.00;;;;;;;11.14;100.00;97364.63;4136198;28;20639;-48
2023/04/24 00:57:26;;;;;;;1.10;1.00;;;;;;;11.14;100.00;97370.09;4120935;28;20229;-48
2023/04/24 00:59:28;;;;;;;1.13;0.80;;;;;;;11.14;100.00;97367.34;4148148;28;20228;-47
2023/04/24 01:01:30;;;;;;;2.42;1.00;;;;;;;11.18;100.00;97365.69;4152522;28;20323;-47
2023/04/24 01:03:33;;;;;;;3.20;1.13;;;;;;;11.17;100.00;97369.53;4152679;28;20201;-47
2023/04/24 01:05:35;;;;;;;1.85;1.13;;;;;;;11.16;100.00;97370.63;4141446;28;20261;-47
2023/04/24 01:07:38;;;;;;;1.48;0.93;;;;;;;11.22;100.00;97372.25;4135733;28;20245;-48
2023/04/24 01:09:43;;;;;;;1.00;1.00;;;;;;;11.17;100.00;97369.53;4134101;28;20230;-48
2023/04/24 01:11:45;;;;;;;1.27;1.05;;;;;;;11.16;100.00;97378.84;4137383;28;20209;-47
2023/04/24 01:13:47;;;;;;;2.35;1.00;;;;;;;11.19;100.00;97389.25;4139796;28;20205;-49
2023/04/24 01:15:49;;;;;;;1.02;0.82;;;;;;;11.18;100.00;97395.00;4142364;28;20683;-48
2023/04/24 01:17:51;;;;;;;1.00;0.90;;;;;;;11.16;100.00;97389.78;4142788;28;20216;-47
2023/04/24 01:19:53;;;;;;;1.13;0.82;;;;;;;11.10;100.00;97390.91;4125400;28;20226;-48
2023/04/24 01:21:58;;;;;;;1.38;1.27;;;;;;;11.00;100.00;97401.09;4140756;28;20224;-48
2023/04/24 01:24:00;;;;;;;0.90;0.90;;;;;;;11.00;100.00;97390.97;4135360;28;20205;-48
2023/04/24 01:26:02;;;;;;;2.03;0.90;;;;;;;10.99;100.00;97400.28;4134829;28;20250;-48
2023/04/24 01:28:03;;;;;;;1.70;0.90;;;;;;;10.92;100.00;97397.00;4139479;28;20256;-49
2023/04/24 01:30:07;;;;;;;1.77;0.90;;;;;;;10.77;100.00;97407.19;4144156;28;20233;-49
2023/04/24 01:32:09;;;;;;;2.55;1.30;;;;;;;10.70;100.00;97411.31;4135537;28;20704;-49
2023/04/24 01:34:10;;;;;;;1.38;0.80;;;;;;;10.64;100.00;97417.91;4140857;28;20300;-50
2023/04/24 01:36:13;;;;;;;2.72;0.85;;;;;;;10.65;100.00;97428.56;4135990;28;20746;-48
2023/04/24 01:38:15;;;;;;;0.80;0.80;;;;;;;10.59;100.00;97423.38;4153843;28;20305;-49
2023/04/24 01:40:17;;;;;;;1.10;1.00;;;;;;;10.33;100.00;97427.22;4152939;28;20319;-50
2023/04/24 01:42:19;;;;;;;1.75;1.10;;;;;;;10.42;100.00;97426.41;4139565;28;20292;-49
2023/04/24 01:44:21;;;;;;;2.38;1.50;;;;;;;10.37;100.00;97428.34;4138136;28;20768;-48
2023/04/24 01:46:24;;;;;;;0.70;0.70;;;;;;;10.11;100.00;97429.44;4140344;28;20210;-47
2023/04/24 01:48:25;;;;;;;0.75;0.75;;;;;;;10.22;100.00;97431.09;4149656;28;20204;-49
2023/04/24 01:50:27;;;;;;;1.08;0.93;;;;;;;10.23;100.00;97443.66;4140751;28;20542;-48
2023/04/24 01:52:31;;;;;;;1.08;0.90;;;;;;;10.20;100.00;97434.09;4140079;28;20209;-49
2023/04/24 01:54:33;;;;;;;1.00;1.00;;;;;;;9.93;100.00;97432.69;4135760;28;20214;-49
2023/04/24 01:56:38;;;;;;;1.00;1.00;;;;;;;9.89;100.00;97439.78;4134637;28;20228;-47
2023/04/24 01:58:39;;;;;;;1.60;0.98;;;;;;;9.85;100.00;97447.72;4153183;28;20323;-48
2023/04/24 02:00:41;;;;;;;2.55;0.80;;;;;;;9.91;100.00;97437.59;4137443;28;20252;-48
2023/04/24 02:02:43;;;;;;;1.35;1.00;;;;;;;9.80;100.00;97444.13;4135142;28;20228;-48
2023/04/24 02:04:48;;;;;;;4.00;0.90;;;;;;;9.87;100.00;97447.44;4118810;28;20202;-47
2023/04/24 02:06:50;;;;;;;1.58;0.90;;;;;;;9.70;100.00;97444.97;4135231;28;20328;-48
2023/04/24 02:08:52;;;;;;;1.08;1.08;;;;;;;9.72;100.00;97448.25;4134669;28;20237;-48
2023/04/24 02:10:54;;;;;;;1.70;1.27;;;;;;;9.73;100.00;97438.13;4136834;28;20268;-47
2023/04/24 02:12:55;;;;;;;1.00;1.00;;;;;;;9.72;100.00;97436.47;4135416;28;20197;-46
2023/04/24 02:14:57;;;;;;;2.30;1.45;;;;;;;9.75;100.00;97446.88;4136949;28;20320;-47
2023/04/24 02:17:00;;;;;;;1.08;1.08;;;;;;;9.57;100.00;97445.50;4123203;28;20707;-47
2023/04/24 02:19:02;;;;;;;1.40;1.30;;;;;;;9.46;100.00;97442.97;4136799;28;21117;-46
2023/04/24 02:21:05;;;;;;;2.25;2.05;;;;;;;9.49;100.00;97447.91;4135773;28;20230;-47
2023/04/24 02:23:07;;;;;;;1.63;1.52;;;;;;;9.41;100.00;97446.53;4139777;28;20205;-47
2023/04/24 02:25:09;;;;;;;1.92;1.83;;;;;;;9.46;100.00;97440.25;4140073;28;20233;-48
2023/04/24 02:27:11;;;;;;;1.25;1.25;;;;;;;9.45;100.00;97446.81;4141424;28;20236;-47
2023/04/24 02:29:13;;;;;;;1.77;1.67;;;;;;;9.40;100.00;97449.50;4124764;28;20573;-47
2023/04/24 02:31:15;;;;;;;1.90;1.80;;;;;;;9.39;100.00;97454.16;4152583;28;20240;-48
2023/04/24 02:33:16;;;;;;;2.05;1.85;;;;;;;9.33;100.00;97444.31;4140265;28;20217;-49
2023/04/24 02:35:18;;;;;;;1.98;1.88;;;;;;;9.39;100.00;97448.72;4150601;28;20301;-48
2023/04/24 02:37:20;;;;;;;2.33;2.13;;;;;;;9.36;100.00;97448.44;4139830;28;20221;-49
2023/04/24 02:39:22;;;;;;;1.67;1.58;;;;;;;9.41;100.00;97459.38;4135787;28;20905;-49
2023/04/24 02:41:23;;;;;;;1.88;1.77;;;;;;;9.35;100.00;97463.16;4135877;28;20229;-47
2023/04/24 02:43:25;;;;;;;2.10;2.00;;;;;;;9.34;100.00;97456.88;4136770;28;20300;-47
2023/04/24 02:45:27;;;;;;;1.67;1.58;;;;;;;9.28;100.00;97459.88;4118502;28;20206;-47
2023/04/24 02:47:29;;;;;;;1.80;1.70;;;;;;;9.43;100.00;97457.97;4138419;28;20770;-48
2023/04/24 02:49:30;;;;;;;3.17;1.83;;;;;;;9.37;100.00;97456.34;4138565;28;20597;-49
2023/04/24 02:51:32;;;;;;;2.22;1.77;;;;;;;9.31;100.00;97457.41;4125913;28;20209;-47
2023/04/24 02:53:34;;;;;;;2.13;2.03;;;;;;;9.32;100.00;97469.16;4121008;28;20257;-47
2023/04/24 02:55:36;;;;;;;2.05;1.92;;;;;;;9.31;100.00;97467.50;4139009;28;20802;-48
2023/04/24 02:57:37;;;;;;;1.60;1.50;;;;;;;9.36;100.00;97475.72;4128825;28;20229;-47
2023/04/24 02:59:39;;;;;;;1.55;1.50;;;;;;;9.29;100.00;97488.81;4134660;28;20238;-47
2023/04/24 03:01:41;;;;;;;2.58;2.38;;;;;;;9.39;100.00;97486.09;4137998;28;20244;-47
2023/04/24 03:03:43;;;;;;;2.65;1.65;;;;;;;9.24;100.00;97496.97;4128237;28;20202;-48
2023/04/24 03:05:45;;;;;;;1.83;1.73;;;;;;;9.25;100.00;97498.59;4142502;28;20213;-48
2023/04/24 03:07:47;;;;;;;1.58;1.48;;;;;;;9.18;100.00;97500.75;4154353;28;20235;-47
2023/04/24 03:09:49;;;;;;;3.38;2.30;;;;;;;9.21;100.00;97505.69;4138363;28;20349;-49
2023/04/24 03:11:51;;;;;;;2.22;2.03;;;;;;;9.35;100.00;97510.38;4128932;28;20210;-48
2023/04/24 03:13:53;;;;;;;3.47;1.90;;;;;;;9.42;100.00;97505.50;4139983;28;20575;-47
2023/04/24 03:15:54;;;;;;;3.03;1.50;;;;;;;9.35;100.00;97501.38;4138557;28;20210;-47
2023/04/24 03:17:56;;;;;;;2.47;2.03;;;;;;;9.29;100.00;97502.44;4140773;28;20210;-48
2023/04/24 03:19:58;;;;;;;2.17;1.98;;;;;;;9.21;100.00;97500.25;4124028;28;20244;-48
2023/04/24 03:22:02;;;;;;;2.17;2.08;;;;;;;9.09;100.00;97505.09;4125753;28;20258;-48
2023/04/24 03:24:04;;;;;;;2.60;1.73;;;;;;;9.09;100.00;97513.28;4137435;28;20206;-47
2023/04/24 03:26:05;;;;;;;3.03;2.63;;;;;;;9.01;100.00;97505.59;4139652;28;20267;-47
2023/04/24 03:28:07;;;;;;;2.30;2.10;;;;;;;8.94;100.00;97510.47;4137818;28;20205;-47
2023/04/24 03:30:09;;;;;;;2.30;2.10;;;;;;;8.98;100.00;97509.66;4138591;28;20691;-47
2023/04/24 03:32:11;;;;;;;2.00;1.90;;;;;;;9.10;100.00;97504.00;4139167;28;20300;-48
2023/04/24 03:34:12;;;;;;;1.88;1.77;;;;;;;8.93;100.00;97508.78;4126291;28;20230;-48
2023/04/24 03:36:14;;;;;;;4.88;1.77;;;;;;;8.93;100.00;97506.91;4123619;28;20207;-47
2023/04/24 03:38:16;;;;;;;2.10;2.00;;;;;;;8.87;100.00;97515.31;4141322;28;20249;-47
2023/04/24 03:40:18;;;;;;;2.95;2.17;;;;;;;8.79;100.00;97511.19;4124715;28;20245;-47
2023/04/24 03:42:20;;;;;;;2.38;2.10;;;;;;;8.92;100.00;97512.63;4142937;28;20229;-48
2023/04/24 03:44:21;;;;;;;2.72;2.53;;;;;;;8.83;100.00;97511.47;4142707;28;20709;-48
2023/04/24 03:46:23;;;;;;;2.25;2.05;;;;;;;8.63;100.00;97503.16;4140205;28;20209;-47
2023/04/24 03:48:26;;;;;;;2.65;2.45;;;;;;;8.69;100.00;97508.38;4137822;28;20224;-48
2023/04/24 03:50:28;;;;;;;2.80;2.60;;;;;;;8.68;100.00;97504.00;4124182;28;20293;-48
2023/04/24 03:52:30;;;;;;;2.63;2.42;;;;;;;8.67;100.00;97510.56;4124429;28;20290;-46
2023/04/24 03:54:32;;;;;;;2.35;2.25;;;;;;;8.74;100.00;97516.59;4140963;28;20660;-47
2023/04/24 03:56:34;;;;;;;3.03;2.83;;;;;;;8.78;100.00;97517.72;4150106;28;20216;-47
2023/04/24 03:58:36;;;;;;;2.60;2.45;;;;;;;8.87;100.00;97518.03;4126428;28;20226;-47
2023/04/24 04:00:40;;;;;;;2.67;2.47;;;;;;;8.85;100.00;97518.31;4152300;28;20228;-48
2023/04/24 04:02:41;;;;;;;2.90;2.65;;;;;;;8.84;100.00;97527.59;4135124;28;20263;-47
2023/04/24 04:04:43;;;;;;;2.20;1.92;;;;;;;8.70;100.00;97525.56;4123363;28;20214;-48
2023/04/24 04:06:46;;;;;;;2.70;2.50;;;;;;;8.74;100.00;97522.06;4135506;28;20268;-47
2023/04/24 04:08:48;;;;;;;3.50;3.20;;;;;;;8.79;100.00;97526.72;4124559;28;21807;-47
2023/04/24 04:10:49;;;;;;;3.47;3.03;;;;;;;8.73;100.00;97525.03;4137384;28;20213;-46
2023/04/24 04:12:51;;;;;;;2.67;2.47;;;;;;;8.59;100.00;97529.31;4153228;28;20208;-47
2023/04/24 04:14:53;;;;;;;2.60;2.40;;;;;;;8.82;100.00;97534.41;4137690;28;20292;-47
2023/04/24 04:16:55;;;;;;;3.53;3.22;;;;;;;8.84;100.00;97535.78;4138193;28;20217;-47
2023/04/24 04:18:57;;;;;;;2.88;2.60;;;;;;;8.77;100.00;97526.16;4150929;28;20264;-48
2023/04/24 04:21:00;;;;;;;6.15;2.83;;;;;;;8.70;100.00;97541.94;4139812;28;20780;-48
2023/04/24 04:23:02;;;;;;;2.88;2.67;;;;;;;8.67;100.00;97537.00;4124609;28;20289;-47
2023/04/24 04:25:05;;;;;;;2.92;2.72;;;;;;;8.70;100.00;97547.38;4133940;28;21003;-48
2023/04/24 04:27:08;;;;;;;3.92;2.92;;;;;;;8.70;100.00;97552.84;4152038;28;20738;-48
2023/04/24 04:29:10;;;;;;;3.15;2.83;;;;;;;8.74;100.00;97553.97;4141236;28;20286;-46
2023/04/24 04:31:11;;;;;;;10.65;3.45;;;;;;;8.76;100.00;97546.34;4136696;28;20240;-48
2023/04/24 04:33:14;;;;;;;2.92;2.72;;;;;;;8.66;100.00;97546.25;4121180;28;20692;-47
2023/04/24 04:35:16;;;;;;;6.82;3.70;;;;;;;8.69;100.00;97551.22;4127291;28;20230;-47
2023/04/24 04:37:17;;;;;;;3.70;3.40;;;;;;;8.71;100.00;97554.50;4126725;28;20249;-48
2023/04/24 04:39:32;;;;;;;4.35;3.95;;;;;;;8.75;100.00;97564.59;4137325;28;20638;-47
2023/04/24 04:41:40;;;;;;;3.67;3.15;;;;;;;8.72;100.00;97550.66;4133636;28;20707;-47
2023/04/24 04:43:42;;;;;;;3.35;3.15;;;;;;;8.79;100.00;97562.19;4127596;28;20206;-47
2023/04/24 04:45:44;;;;;;;4.38;3.20;;;;;;;8.85;100.00;97567.41;4141310;28;20212;-47
2023/04/24 04:47:46;;;;;;;3.78;3.45;;;;;;;8.93;100.00;97568.81;4141490;28;20233;-47
2023/04/24 04:49:48;;;;;;;4.57;4.18;;;;;;;8.81;100.00;97570.94;4124050;28;20238;-48
2023/04/24 04:51:50;;;;;;;4.40;3.90;;;;;;;8.77;100.00;97569.81;4141498;28;20202;-47
2023/04/24 04:53:53;;;;;;;4.55;4.15;;;;;;;8.68;100.00;97577.66;4126651;28;20221;-48
2023/04/24 04:55:54;;;;;;;4.38;3.97;;;;;;;8.70;100.00;97570.00;4149838;28;20247;-48
2023/04/24 04:57:57;;;;;;;3.42;3.15;;;;;;;8.58;100.00;97574.00;4119887;28;20708;-47
2023/04/24 04:59:58;;;;;;;4.68;4.30;;;;;;;8.70;100.00;97574.66;4137531;28;20221;-48
2023/04/24 05:02:00;;;;;;;4.45;4.05;;;;;;;8.66;100.00;97568.91;4134846;28;20683;-48
2023/04/24 05:04:05;;;;;;;4.60;3.78;;;;;;;8.71;100.00;97579.88;4139349;28;20292;-47
2023/04/24 05:06:07;;;;;;;4.30;4.00;;;;;;;8.67;100.00;97573.28;4133988;28;20692;-47
2023/04/24 05:08:11;;;;;;;3.65;3.35;;;;;;;8.83;100.00;97579.66;4122562;28;20738;-47
2023/04/24 05:10:33;;;;;;;4.47;4.07;;;;;;;8.72;100.00;97583.41;4136480;28;20257;-46
2023/04/24 05:12:36;;;;;;;4.20;3.83;;;;;;;8.79;100.00;97578.53;4138725;28;20210;-47
2023/04/24 05:14:38;;;;;;;4.70;4.30;;;;;;;8.76;100.00;97581.81;4118936;28;20210;-47
2023/04/24 05:16:40;;;;;;;4.03;3.72;;;;;;;8.73;100.00;97585.88;4148939;28;21416;-47
2023/04/24 05:18:42;;;;;;;7.90;3.90;;;;;;;8.79;100.00;97589.44;4140542;28;20754;-48
2023/04/24 05:20:44;;;;;;;5.05;4.65;;;;;;;8.77;100.00;97597.09;4136275;28;20209;-47
2023/04/24 05:22:46;;;;;;;4.75;4.03;;;;;;;8.61;100.00;97587.16;4136643;28;20229;-47
2023/04/24 05:24:58;;;;;;;4.82;4.43;;;;;;;8.76;100.00;97589.97;4121529;28;20220;-47
2023/04/24 05:27:06;;;;;;;5.07;4.57;;;;;;;8.79;100.00;97589.44;4139398;28;20583;-47
2023/04/24 05:29:08;;;;;;;5.20;4.80;;;;;;;8.75;100.00;97599.25;4125785;28;20229;-48
2023/04/24 05:31:12;;;;;;;4.57;4.15;;;;;;;8.69;100.00;97600.28;4133186;28;20229;-47
2023/04/24 05:33:15;;;;;;;3.58;3.33;;;;;;;8.73;100.00;97601.41;4125821;28;20293;-47
2023/04/24 05:35:18;;;;;;;3.80;3.50;;;;;;;8.82;100.00;97605.31;4126343;28;20220;-48
2023/04/24 05:37:20;;;;;;;4.18;3.78;;;;;;;8.78;100.00;97598.72;4138940;28;20211;-48
2023/04/24 05:39:24;;;;;;;7.55;4.20;;;;;;;8.74;100.00;97603.06;4140964;28;20239;-48
2023/04/24 05:41:26;;;;;;;5.38;4.88;;;;;;;8.77;100.00;97614.28;4134977;28;20226;-47
2023/04/24 05:43:37;;;;;;;4.78;4.03;;;;;;;8.82;100.00;97605.31;4151267;28;20745;-47
2023/04/24 05:45:39;;;;;;;4.07;3.78;;;;;;;8.93;100.00;97612.47;4120118;28;20197;-48
2023/04/24 05:47:41;;;;;;;4.47;4.18;;;;;;;8.94;100.00;97609.47;4136470;28;20303;-47
2023/04/24 05:49:43;;;;;;;4.38;4.07;;;;;;;8.95;100.00;97613.06;4121974;28;20261;-47
2023/04/24 05:51:46;;;;;;;4.85;4.55;;;;;;;8.74;100.00;97619.44;4123256;28;20208;-48
2023/04/24 05:53:48;;;;;;;4.45;4.05;;;;;;;8.63;100.00;97614.97;4134607;28;20226;-47
2023/04/24 05:55:50;;;;;;;4.18;3.50;;;;;;;8.57;100.00;97625.00;4151019;28;20209;-48
2023/04/24 05:57:53;;;;;;;4.60;4.22;;;;;;;8.54;100.00;97624.72;4154073;28;20276;-47
2023/04/24 05:59:56;;;;;;;5.60;5.20;;;;;;;8.66;100.00;97617.16;4122995;28;20261;-47
2023/04/24 06:01:58;;;;;;;3.90;3.60;;;;;;;8.66;100.00;97622.63;4140055;28;20225;-46
2023/04/24 06:04:00;;;;;;;4.45;4.10;;;;;;;8.80;100.00;97623.81;4123476;28;20445;-47
2023/04/24 06:06:03;;;;;;;3.85;3.55;;;;;;;8.80;100.00;97623.81;4134726;28;20249;-47
2023/04/24 06:08:08;;;;;;;3.97;3.67;;;;;;;8.78;100.00;97628.72;4141495;28;20201;-47
2023/04/24 06:10:11;;;;;;;4.07;3.55;;;;;;;8.85;100.00;97632.88;4135448;28;20315;-47
2023/04/24 06:12:22;;;;;;;4.28;3.97;;;;;;;9.08;100.00;97629.78;4135510;28;20197;-48
2023/04/24 06:14:42;;;;;;;3.28;2.90;;;;;;;9.30;100.00;97637.84;4136699;28;20680;-48
2023/04/24 06:16:44;;;;;;;3.80;3.50;;;;;;;9.42;100.00;97638.47;4135547;28;20205;-47
2023/04/24 06:18:50;;;;;;;3.88;3.50;;;;;;;9.44;100.00;97637.13;4136731;28;20229;-48
2023/04/24 06:20:52;;;;;;;3.22;3.00;;;;;;;9.37;100.00;97641.16;4136941;28;20344;-48
2023/04/24 06:22:54;;;;;;;3.13;2.90;;;;;;;9.44;100.00;97645.31;4142549;28;20241;-48
2023/04/24 06:25:01;;;;;;;2.50;2.30;;;;;;;9.62;100.00;97649.50;4127949;28;20237;-47
2023/04/24 06:27:16;;;;;;;2.88;2.58;;;;;;;9.85;100.00;97647.16;4154115;28;20202;-49
2023/04/24 06:29:19;;;;;;;2.25;2.15;;;;;;;9.62;100.00;97644.03;4137791;28;20321;-47
2023/04/24 06:31:22;;;;;;;2.30;2.20;;;;;;;9.56;100.00;97645.91;4122148;28;20218;-47
2023/04/24 06:33:24;;;;;;;2.83;2.38;;;;;;;9.56;100.00;97656.84;4150899;28;20223;-47
2023/04/24 06:35:27;;;;;;;3.40;3.10;;;;;;;9.52;100.00;97660.34;4153534;28;20218;-48
2023/04/24 06:37:30;;;;;;;2.45;2.25;;;;;;;9.45;100.00;97655.16;4151184;28;20242;-47
2023/04/24 06:39:32;;;;;;;2.00;1.90;;;;;;;9.42;100.00;97660.31;4135089;28;20224;-48
2023/04/24 06:41:34;;;;;;;2.65;2.45;;;;;;;9.49;100.00;97671.81;4144277;28;20240;-46
2023/04/24 06:43:36;;;;;;;3.67;2.78;;;;;;;9.46;100.00;97666.88;4131940;28;20213;-48
2023/04/24 06:45:39;;;;;;;3.38;2.85;;;;;;;9.44;100.00;97679.97;4136253;28;20283;-47
2023/04/24 06:47:42;;;;;;;2.67;2.47;;;;;;;9.50;100.00;97689.84;4120784;28;20210;-49
2023/04/24 06:49:47;;;;;;;3.38;2.90;;;;;;;9.44;100.00;97688.16;4127873;28;20281;-47
2023/04/24 06:51:49;;;;;;;3.13;2.85;;;;;;;9.49;100.00;97677.28;4140149;28;20385;-47
2023/04/24 06:53:53;;;;;;;3.78;2.85;;;;;;;9.63;100.00;97673.81;4145118;28;20280;-47
2023/04/24 06:55:56;;;;;;;3.00;2.03;;;;;;;9.71;98.23;97664.28;4138699;28;20699;-47
2023/04/24 06:57:58;;;;;;;2.42;2.00;;;;;;;9.94;97.73;97680.28;4123309;28;20672;-47
2023/04/24 07:00:11;;;;;;;1.95;1.85;;;;;;;10.30;97.33;97684.81;4144031;28;20224;-48
2023/04/24 07:02:13;;;;;;;2.15;2.03;;;;;;;10.46;96.50;97697.44;4141885;28;20464;-49
2023/04/24 07:04:16;;;;;;;1.73;1.63;;;;;;;10.10;93.68;97695.66;4146030;28;20209;-47
2023/04/24 07:06:21;;;;;;;3.05;2.25;;;;;;;9.99;94.50;97704.88;4135269;28;20213;-46
2023/04/24 07:08:25;;;;;;;1.95;1.75;;;;;;;9.70;94.40;97711.81;4125843;28;20214;-47
2023/04/24 07:10:28;;;;;;;1.80;1.70;;;;;;;9.65;94.38;97711.78;4156086;28;20217;-48
2023/04/24 07:12:37;;;;;;;1.83;1.48;;;;;;;9.71;94.45;97708.84;4128046;28;20250;-47
2023/04/24 07:14:40;;;;;;;2.28;1.77;;;;;;;9.75;93.71;97703.66;4137971;28;20201;-48
2023/04/24 07:16:43;;;;;;;6.15;2.00;;;;;;;9.80;94.86;97712.69;4134863;28;20566;-47
2023/04/24 07:18:45;;;;;;;1.88;1.75;;;;;;;9.79;93.05;97704.75;4137715;28;20221;-48
2023/04/24 07:20:51;;;;;;;1.73;1.63;;;;;;;9.78;93.76;97705.84;4139853;28;20214;-47
2023/04/24 07:22:53;;;;;;;1.70;1.60;;;;;;;9.87;95.05;97715.22;4123228;28;20228;-47
2023/04/24 07:24:55;;;;;;;1.70;1.60;;;;;;;9.75;94.24;97698.19;4142619;28;20723;-46
2023/04/24 07:26:58;;;;;;;2.03;1.83;;;;;;;9.75;93.62;97709.13;4154485;28;20213;-47
2023/04/24 07:29:00;;;;;;;1.45;1.35;;;;;;;9.73;93.68;97708.53;4139063;28;20233;-48
2023/04/24 07:31:05;;;;;;;1.77;1.67;;;;;;;9.71;94.24;97716.19;4136978;28;20205;-47
2023/04/24 07:33:07;;;;;;;2.00;1.90;;;;;;;9.77;94.46;97720.59;4122824;28;20206;-47
2023/04/24 07:35:13;;;;;;;2.15;1.95;;;;;;;9.51;93.97;97718.78;4126902;28;20253;-47
2023/04/24 07:37:15;;;;;;;1.92;1.60;;;;;;;9.43;94.91;97728.28;4135522;28;20644;-48
2023/04/24 07:39:18;;;;;;;2.38;2.17;;;;;;;9.39;94.17;97731.81;4141799;28;20264;-47
2023/04/24 07:41:24;;;;;;;3.58;3.28;;;;;;;9.35;94.42;97727.97;4126161;28;20226;-48
2023/04/24 07:43:37;;;;;;;2.63;2.28;;;;;;;9.44;94.65;97731.84;4141521;28;20695;-47
2023/04/24 07:45:39;;;;;;;2.30;2.13;;;;;;;9.35;93.66;97734.25;4137305;28;20212;-49
2023/04/24 07:47:43;;;;;;;1.77;1.67;;;;;;;9.23;93.99;97733.59;4121156;28;20218;-49
2023/04/24 07:49:46;;;;;;;2.33;2.20;;;;;;;9.26;94.40;97740.44;4145240;28;20606;-46
2023/04/24 07:52:00;;;;;;;3.08;2.20;;;;;;;9.44;95.11;97740.03;4127390;28;20718;-47
2023/04/24 07:54:02;;;;;;;2.05;1.95;;;;;;;9.44;94.39;97746.34;4139216;28;20260;-47
2023/04/24 07:56:04;;;;;;;2.92;2.83;;;;;;;9.49;95.29;97751.00;4122733;28;20824;-47
2023/04/24 07:58:06;;;;;;;1.80;1.70;;;;;;;9.50;94.60;97744.47;4135889;28;20569;-47
2023/04/24 08:00:09;;;;;;;2.67;2.03;;;;;;;9.33;94.77;97752.78;4139466;28;20272;-47
2023/04/24 08:02:11;;;;;;;4.25;2.40;;;;;;;9.34;94.82;97767.28;4142174;28;20267;-48
2023/04/24 08:04:13;;;;;;;2.10;2.00;;;;;;;9.30;95.19;97766.16;4134159;28;20210;-47
2023/04/24 08:06:15;;;;;;;2.97;2.33;;;;;;;9.16;96.55;97764.94;4133397;28;20233;-48
2023/04/24 08:08:27;;;;;;;2.25;1.83;;;;;;;9.22;96.32;97766.63;4135255;28;20486;-49
2023/04/24 08:10:35;;;;;;;2.50;2.20;;;;;;;9.30;95.73;97777.06;4152070;28;20541;-46
2023/04/24 08:12:37;;;;;;;2.53;2.33;;;;;;;9.20;95.80;97776.97;4119975;28;20590;-47
2023/04/24 08:14:39;;;;;;;2.50;2.30;;;;;;;9.23;96.40;97776.47;4150785;28;20210;-48
2023/04/24 08:16:41;;;;;;;2.80;2.53;;;;;;;9.27;96.76;97778.41;4138249;28;20293;-48
2023/04/24 08:18:43;;;;;;;2.38;2.17;;;;;;;9.28;97.10;97784.69;4126652;28;20221;-48
2023/04/24 08:20:45;;;;;;;3.25;2.95;;;;;;;9.26;96.66;97781.38;4142121;28;20803;-48
2023/04/24 08:22:48;;;;;;;2.55;2.35;;;;;;;9.23;96.08;97787.38;4152537;28;20224;-48
2023/04/24 08:24:50;;;;;;;3.15;2.95;;;;;;;9.25;96.66;97777.00;4143538;28;20795;-50
2023/04/24 08:26:53;;;;;;;2.80;2.60;;;;;;;9.31;96.91;97785.00;4142914;28;20289;-48
2023/04/24 08:28:55;;;;;;;2.58;2.38;;;;;;;9.36;96.25;97784.22;4142444;28;20229;-48
2023/04/24 08:30:57;;;;;;;3.25;2.65;;;;;;;9.31;97.05;97776.81;4137709;28;20288;-48
2023/04/24 08:32:59;;;;;;;3.97;2.17;;;;;;;9.43;96.56;97782.09;4137690;28;20538;-49
2023/04/24 08:35:01;;;;;;;2.80;2.58;;;;;;;9.43;96.29;97784.81;4135482;28;20217;-48
2023/04/24 08:37:02;;;;;;;1.70;1.60;;;;;;;9.41;96.46;97782.34;4141234;28;20248;-48
2023/04/24 08:39:05;;;;;;;2.55;2.35;;;;;;;9.50;96.46;97779.97;4121216;28;20786;-48
2023/04/24 08:41:07;;;;;;;2.72;2.53;;;;;;;9.43;96.11;97782.09;4153461;28;20579;-49
2023/04/24 08:43:10;;;;;;;2.03;1.88;;;;;;;9.40;96.19;97777.13;4152648;28;20315;-48
2023/04/24 08:45:12;;;;;;;3.03;2.55;;;;;;;9.38;96.03;97785.59;4136230;28;20221;-48
2023/04/24 08:47:15;;;;;;;3.10;2.80;;;;;;;9.43;96.50;97788.34;4138531;28;20722;-48
2023/04/24 08:49:17;;;;;;;2.13;2.03;;;;;;;9.44;96.73;97794.66;4144195;28;20251;-49
2023/04/24 08:51:20;;;;;;;2.55;2.17;;;;;;;9.37;96.39;97794.06;4136357;28;20257;-48
2023/04/24 08:53:22;;;;;;;2.08;1.95;;;;;;;9.40;97.06;97798.97;4132857;28;20217;-48
2023/04/24 08:55:25;;;;;;;2.55;2.35;;;;;;;9.42;96.97;97796.84;4120802;28;20302;-49
2023/04/24 08:57:27;;;;;;;2.55;2.05;;;;;;;9.38;97.08;97802.00;4135384;28;20221;-48
2023/04/24 08:59:33;;;;;;;3.15;2.42;;;;;;;9.30;96.92;97804.38;4118063;28;20241;-48
2023/04/24 09:01:35;;;;;;;2.45;2.35;;;;;;;9.31;98.25;97795.09;4138705;28;20852;-48
2023/04/24 09:03:37;;;;;;;2.88;2.58;;;;;;;9.29;98.71;97803.53;4131607;28;20229;-48
2023/04/24 09:05:40;;;;;;;4.43;3.03;;;;;;;9.38;97.97;97795.69;4148214;28;20205;-48
2023/04/24 09:07:45;;;;;;;3.25;2.95;;;;;;;9.35;97.94;97804.41;4140170;28;20693;-48
2023/04/24 09:09:48;;;;;;;3.13;2.92;;;;;;;9.43;97.97;97814.84;4149091;28;20303;-48
2023/04/24 09:11:53;;;;;;;2.63;2.42;;;;;;;9.45;98.08;97818.13;4147645;28;20197;-48
2023/04/24 09:13:55;;;;;;;4.20;2.97;;;;;;;9.50;98.72;97820.91;4134642;28;20759;-48
2023/04/24 09:15:57;;;;;;;2.33;2.10;;;;;;;9.46;98.65;97823.34;4135984;28;20220;-47
2023/04/24 09:17:59;;;;;;;3.47;3.17;;;;;;;9.42;98.80;97824.13;4138905;28;20695;-47
2023/04/24 09:20:02;;;;;;;3.22;2.75;;;;;;;9.41;99.64;97833.41;4121201;28;20762;-48
2023/04/24 09:22:07;;;;;;;3.03;2.20;;;;;;;9.36;99.63;97841.56;4122523;28;20277;-47
2023/04/24 09:24:22;;;;;;;6.88;3.13;;;;;;;9.52;99.78;97830.50;4133825;28;20233;-48
2023/04/24 09:26:24;;;;;;;2.70;2.40;;;;;;;9.67;99.30;97832.56;4131761;28;20655;-48
2023/04/24 09:28:40;;;;;;;2.83;2.58;;;;;;;9.87;99.14;97835.44;4134521;28;20241;-48
2023/04/24 09:30:45;;;;;;;3.55;2.60;;;;;;;9.96;97.72;97828.38;4142090;28;20275;-47
2023/04/24 09:33:12;;;;;;;3.72;3.42;;;;;;;9.93;98.02;97843.41;4136951;28;20240;-48
2023/04/24 09:35:15;;;;;;;2.58;2.20;;;;;;;10.01;98.12;97842.09;4133630;28;20205;-48
2023/04/24 09:37:29;;;;;;;2.67;2.47;;;;;;;9.80;97.39;97837.53;4140045;28;20248;-49
2023/04/24 09:39:31;;;;;;;3.40;2.70;;;;;;;9.60;98.78;97832.75;4140913;28;20256;-49